createdAt,value
2018-11-29T00:00:25.873Z,8.43
2018-11-29T00:02:55.291Z,10.63
2018-11-29T00:05:30.296Z,5.07
2018-11-29T00:08:06.274Z,5.43
2018-11-29T00:10:35.985Z,6.60
2018-11-29T00:13:05.366Z,7.00
2018-11-29T00:15:34.752Z,7.90
2018-11-29T00:18:03.961Z,9.13
2018-11-29T00:20:33.568Z,8.37
2018-11-29T00:23:03.163Z,7.83
2018-11-29T00:25:32.292Z,9.13
2018-11-29T00:28:01.374Z,5.70
2018-11-29T00:30:30.455Z,7.17
2018-11-29T00:32:59.883Z,6.90
2018-11-29T00:35:28.980Z,7.17
2018-11-29T00:37:58.792Z,8.00
2018-11-29T00:40:28.272Z,7.00
2018-11-29T00:42:57.407Z,8.07
2018-11-29T00:45:26.492Z,7.97
2018-11-29T00:47:55.547Z,5.70
2018-11-29T00:50:24.990Z,6.57
2018-11-29T00:52:54.067Z,7.33
2018-11-29T00:55:23.742Z,6.40
2018-11-29T00:57:53.427Z,7.50
2018-11-29T01:00:24.472Z,8.10
2018-11-29T01:02:53.851Z,4.33
2018-11-29T01:05:23.047Z,9.60
2018-11-29T01:07:52.064Z,9.17
2018-11-29T01:10:21.339Z,6.00
2018-11-29T01:12:50.796Z,7.73
2018-11-29T01:15:20.763Z,7.60
2018-11-29T01:17:51.589Z,10.03
2018-11-29T01:20:21.375Z,5.03
2018-11-29T01:22:50.734Z,6.30
2018-11-29T01:25:20.038Z,7.93
2018-11-29T01:27:49.882Z,6.57
2018-11-29T01:30:20.348Z,6.93
2018-11-29T01:32:49.331Z,7.27
2018-11-29T01:35:19.044Z,7.10
2018-11-29T01:37:48.113Z,5.47
2018-11-29T01:40:20.564Z,6.00
2018-11-29T01:42:54.640Z,7.17
2018-11-29T01:45:23.839Z,7.67
2018-11-29T01:47:52.824Z,5.20
2018-11-29T01:50:22.737Z,5.07
2018-11-29T01:52:51.715Z,5.83
2018-11-29T01:55:20.761Z,4.07
2018-11-29T01:57:50.101Z,6.80
2018-11-29T02:00:19.624Z,5.80
2018-11-29T02:02:49.867Z,5.63
2018-11-29T02:05:19.152Z,8.47
2018-11-29T02:07:48.959Z,4.10
2018-11-29T02:10:23.476Z,5.47
2018-11-29T02:12:52.581Z,6.57
2018-11-29T02:15:22.080Z,4.20
2018-11-29T02:17:51.489Z,7.67
2018-11-29T02:20:20.885Z,7.23
2018-11-29T02:22:50.095Z,7.10
2018-11-29T02:25:19.085Z,7.23
2018-11-29T02:27:48.579Z,7.07
2018-11-29T02:30:21.583Z,8.03
2018-11-29T02:32:50.843Z,7.80
2018-11-29T02:35:20.893Z,5.33
2018-11-29T02:37:50.081Z,7.23
2018-11-29T02:40:19.542Z,6.93
2018-11-29T02:42:49.546Z,3.83
2018-11-29T02:45:21.055Z,5.47
2018-11-29T02:47:50.229Z,6.07
2018-11-29T02:50:19.292Z,5.30
2018-11-29T02:52:48.575Z,5.40
2018-11-29T02:55:17.789Z,6.03
2018-11-29T02:57:47.972Z,6.67
2018-11-29T03:00:17.814Z,4.77
2018-11-29T03:02:47.802Z,6.43
2018-11-29T03:05:17.285Z,7.00
2018-11-29T03:07:47.528Z,6.33
2018-11-29T03:10:22.143Z,4.87
2018-11-29T03:12:51.161Z,4.50
2018-11-29T03:15:20.542Z,6.03
2018-11-29T03:17:49.775Z,6.60
2018-11-29T03:20:19.031Z,7.67
2018-11-29T03:22:48.041Z,7.90
2018-11-29T03:25:17.331Z,6.33
2018-11-29T03:27:46.638Z,4.37
2018-11-29T03:30:17.205Z,9.93
2018-11-29T03:32:46.477Z,6.70
2018-11-29T03:35:15.775Z,5.10
2018-11-29T03:37:45.988Z,7.93
2018-11-29T03:40:16.519Z,4.93
2018-11-29T03:42:45.991Z,6.80
2018-11-29T03:45:16.703Z,7.53
2018-11-29T03:47:45.972Z,6.80
2018-11-29T03:50:15.923Z,7.72
2018-11-29T03:52:45.350Z,8.53
2018-11-29T03:55:14.669Z,6.80
2018-11-29T03:57:43.828Z,5.30
2018-11-29T04:00:17.623Z,7.10
2018-11-29T04:02:49.453Z,6.00
2018-11-29T04:05:18.725Z,4.47
2018-11-29T04:07:48.307Z,5.53
2018-11-29T04:10:17.675Z,5.90
2018-11-29T04:12:46.683Z,5.27
2018-11-29T04:15:16.269Z,6.72
2018-11-29T04:17:47.392Z,5.23
2018-11-29T04:20:17.261Z,5.63
2018-11-29T04:22:46.800Z,3.87
2018-11-29T04:25:16.288Z,6.33
2018-11-29T04:27:45.524Z,8.60
2018-11-29T04:30:16.099Z,9.13
2018-11-29T04:32:45.398Z,6.73
2018-11-29T04:35:14.707Z,5.00
2018-11-29T04:37:44.053Z,10.30
2018-11-29T04:40:15.783Z,5.87
2018-11-29T04:42:45.149Z,7.23
2018-11-29T04:45:15.836Z,6.07
2018-11-29T04:47:45.240Z,10.60
2018-11-29T04:50:14.725Z,6.00
2018-11-29T04:52:43.723Z,5.77
2018-11-29T04:55:13.646Z,9.23
2018-11-29T04:57:42.660Z,7.53
2018-11-29T05:00:18.381Z,6.45
2018-11-29T05:02:47.661Z,3.90
2018-11-29T05:05:16.882Z,5.03
2018-11-29T05:07:46.491Z,4.90
2018-11-29T05:10:17.155Z,4.77
2018-11-29T05:12:47.135Z,5.13
2018-11-29T05:15:16.412Z,3.30
2018-11-29T05:17:45.632Z,9.87
2018-11-29T05:20:14.632Z,5.93
2018-11-29T05:22:44.000Z,4.33
2018-11-29T05:25:13.257Z,5.13
2018-11-29T05:27:42.197Z,3.40
2018-11-29T05:30:12.607Z,4.87
2018-11-29T05:32:42.672Z,4.60
2018-11-29T05:35:12.458Z,4.27
2018-11-29T05:37:41.751Z,4.77
2018-11-29T05:40:13.336Z,7.40
2018-11-29T05:42:42.715Z,4.10
2018-11-29T05:45:12.026Z,4.10
2018-11-29T05:47:41.348Z,6.07
2018-11-29T05:50:11.617Z,4.00
2018-11-29T05:52:41.836Z,4.70
2018-11-29T05:55:12.128Z,7.30
2018-11-29T05:57:42.040Z,6.83
2018-11-29T06:00:13.630Z,5.73
2018-11-29T06:02:43.160Z,5.33
2018-11-29T06:05:13.544Z,7.47
2018-11-29T06:07:43.517Z,6.67
2018-11-29T06:10:12.810Z,5.33
2018-11-29T06:12:42.116Z,8.00
2018-11-29T06:15:11.926Z,7.03
2018-11-29T06:17:41.463Z,8.23
2018-11-29T06:20:18.181Z,5.10
2018-11-29T06:22:47.515Z,8.27
2018-11-29T06:25:16.717Z,5.07
2018-11-29T06:27:46.628Z,7.77
2018-11-29T06:30:19.033Z,7.87
2018-11-29T06:32:48.600Z,7.47
2018-11-29T06:35:18.215Z,7.23
2018-11-29T06:37:47.371Z,4.23
2018-11-29T06:40:17.071Z,10.87
2018-11-29T06:42:46.507Z,7.73
2018-11-29T06:45:17.432Z,7.80
2018-11-29T06:47:47.676Z,6.20
2018-11-29T06:50:17.285Z,6.20
2018-11-29T06:52:47.776Z,11.13
2018-11-29T06:55:19.429Z,6.67
2018-11-29T06:57:49.286Z,18.87
2018-11-29T07:00:37.947Z,5.23
2018-11-29T07:03:07.258Z,9.53
2018-11-29T07:05:36.849Z,4.40
2018-11-29T07:08:06.344Z,5.47
2018-11-29T07:10:35.770Z,7.97
2018-11-29T07:13:06.691Z,4.67
2018-11-29T07:15:35.892Z,7.67
2018-11-29T07:18:05.507Z,2.90
2018-11-29T07:20:34.996Z,5.63
2018-11-29T07:23:04.531Z,4.93
2018-11-29T07:25:33.716Z,7.27
2018-11-29T07:28:03.428Z,6.07
2018-11-29T07:30:33.430Z,3.67
2018-11-29T07:33:03.038Z,5.30
2018-11-29T07:35:32.648Z,4.60
2018-11-29T07:38:01.849Z,4.97
2018-11-29T07:40:31.286Z,6.62
2018-11-29T07:43:00.953Z,3.67
2018-11-29T07:45:30.261Z,5.87
2018-11-29T07:47:59.216Z,5.87
2018-11-29T07:50:28.252Z,6.10
2018-11-29T07:52:57.547Z,6.13
2018-11-29T07:55:27.458Z,3.70
2018-11-29T07:57:56.424Z,6.30
2018-11-29T08:00:26.060Z,6.83
2018-11-29T08:02:55.384Z,4.07
2018-11-29T08:05:24.364Z,7.83
2018-11-29T08:07:53.347Z,4.37
2018-11-29T08:10:22.316Z,6.30
2018-11-29T08:12:51.837Z,5.70
2018-11-29T08:15:21.649Z,4.70
2018-11-29T08:17:51.767Z,5.53
2018-11-29T08:20:21.658Z,5.03
2018-11-29T08:22:51.507Z,7.20
2018-11-29T08:25:21.721Z,8.10
2018-11-29T08:27:50.802Z,4.17
2018-11-29T08:30:20.264Z,7.47
2018-11-29T08:32:50.175Z,5.63
2018-11-29T08:35:20.563Z,4.03
2018-11-29T08:37:49.517Z,7.67
2018-11-29T08:40:19.507Z,7.53
2018-11-29T08:42:48.901Z,5.20
2018-11-29T08:45:18.992Z,7.90
2018-11-29T09:01:21.900Z,4.63
2018-11-29T09:03:52.232Z,6.20
2018-11-29T09:06:21.248Z,6.73
2018-11-29T09:08:50.721Z,5.53
2018-11-29T09:11:19.984Z,7.20
2018-11-29T09:13:49.092Z,6.73
2018-11-29T09:16:18.100Z,4.13
2018-11-29T09:18:47.338Z,5.00
2018-11-29T09:21:16.560Z,4.43
2018-11-29T09:23:46.184Z,4.87
2018-11-29T09:26:15.645Z,6.87
2018-11-29T09:28:44.922Z,3.93
2018-11-29T09:31:14.344Z,4.73
2018-11-29T09:33:43.725Z,7.73
2018-11-29T09:36:12.883Z,8.87
2018-11-29T09:38:42.161Z,6.23
2018-11-29T09:41:11.625Z,4.43
2018-11-29T09:43:40.731Z,7.10
2018-11-29T09:46:10.608Z,6.13
2018-11-29T09:48:39.833Z,5.90
2018-11-29T09:51:08.899Z,5.33
2018-11-29T09:53:39.153Z,4.63
2018-11-29T09:56:08.687Z,4.57
2018-11-29T09:58:37.736Z,9.47
2018-11-29T10:01:07.139Z,6.77
2018-11-29T10:03:36.413Z,5.20
2018-11-29T10:06:05.724Z,5.27
2018-11-29T10:08:34.945Z,8.37
2018-11-29T10:11:03.931Z,5.63
2018-11-29T10:45:43.706Z,4.17
2018-11-29T10:48:17.128Z,4.27
2018-11-29T10:50:46.774Z,6.80
2018-11-29T10:53:15.904Z,6.47
2018-11-29T10:55:45.287Z,5.43
2018-11-29T10:58:14.476Z,6.83
2018-11-29T11:00:49.027Z,6.63
2018-11-29T11:03:21.379Z,7.63
2018-11-29T11:05:51.508Z,5.13
2018-11-29T11:08:21.086Z,4.80
2018-11-29T11:10:50.958Z,5.40
2018-11-29T11:13:20.624Z,5.87
2018-11-29T11:15:49.947Z,4.57
2018-11-29T11:18:19.196Z,5.57
2018-11-29T11:20:48.524Z,3.77
2018-11-29T11:23:17.696Z,3.80
2018-11-29T11:25:46.995Z,6.03
2018-11-29T11:28:16.248Z,5.10
2018-11-29T11:30:46.135Z,4.93
2018-11-29T11:33:15.743Z,8.47
2018-11-29T11:35:45.044Z,6.67
2018-11-29T11:38:14.596Z,4.37
2018-11-29T11:40:43.951Z,5.00
2018-11-29T11:43:14.375Z,7.37
2018-11-29T11:45:43.515Z,7.13
2018-11-29T11:48:12.844Z,5.13
2018-11-29T11:50:42.392Z,3.90
2018-11-29T11:53:11.575Z,5.47
2018-11-29T11:55:41.180Z,6.07
2018-11-29T11:58:10.360Z,5.87
2018-11-29T12:00:40.957Z,4.57
2018-11-29T12:03:12.208Z,6.30
2018-11-29T12:05:41.560Z,4.07
2018-11-29T12:08:10.595Z,4.93
2018-11-29T12:10:40.773Z,5.77
2018-11-29T12:13:09.856Z,9.13
2018-11-29T12:15:41.913Z,3.57
2018-11-29T12:18:12.300Z,6.93
2018-11-29T12:20:42.174Z,5.00
2018-11-29T12:23:21.085Z,3.10
2018-11-29T12:25:50.508Z,5.33
2018-11-29T12:28:20.347Z,5.17
2018-11-29T12:30:50.388Z,5.33
2018-11-29T12:33:19.527Z,6.27
2018-11-29T12:35:48.533Z,4.90
2018-11-29T12:38:17.576Z,6.23
2018-11-29T12:40:47.739Z,5.10
2018-11-29T12:43:17.652Z,5.90
2018-11-29T12:45:47.256Z,8.30
2018-11-29T12:48:17.069Z,7.17
2018-11-29T12:50:46.186Z,6.33
2018-11-29T12:53:15.180Z,5.73
2018-11-29T12:55:45.083Z,3.07
2018-11-29T12:58:15.193Z,4.27
2018-11-29T13:00:44.312Z,5.20
2018-11-29T13:03:13.316Z,4.63
2018-11-29T13:05:42.567Z,5.07
2018-11-29T13:08:12.393Z,5.37
2018-11-29T13:10:41.503Z,6.83
2018-11-29T13:13:10.776Z,5.17
2018-11-29T13:15:39.983Z,5.97
2018-11-29T13:18:09.519Z,4.27
2018-11-29T13:20:38.664Z,5.43
2018-11-29T13:23:08.497Z,6.47
2018-11-29T13:25:38.108Z,7.50
2018-11-29T13:28:07.763Z,5.90
2018-11-29T13:30:37.488Z,7.90
2018-11-29T13:33:08.288Z,7.73
2018-11-29T13:35:37.624Z,6.47
2018-11-29T13:38:11.001Z,4.97
2018-11-29T13:40:40.823Z,6.17
2018-11-29T13:43:10.270Z,6.53
2018-11-29T13:45:40.190Z,4.87
2018-11-29T13:48:11.963Z,8.37
2018-11-29T13:50:42.251Z,5.90
2018-11-29T13:53:11.470Z,4.43
2018-11-29T13:55:40.996Z,5.33
2018-11-29T13:58:10.206Z,5.53
2018-11-29T14:00:39.853Z,7.90
2018-11-29T14:03:10.521Z,9.13
2018-11-29T14:05:39.920Z,11.50
2018-11-29T14:08:09.633Z,10.70
2018-11-29T14:10:40.188Z,4.57
2018-11-29T14:13:09.687Z,6.10
2018-11-29T14:15:39.004Z,6.08
2018-11-29T14:18:08.287Z,7.57
2018-11-29T14:20:37.454Z,5.73
2018-11-29T14:23:06.895Z,7.13
2018-11-29T14:25:36.238Z,8.07
2018-11-29T14:28:06.694Z,10.93
2018-11-29T14:30:36.503Z,9.73
2018-11-29T14:33:06.975Z,9.23
2018-11-29T14:35:37.053Z,8.23
2018-11-29T14:38:06.438Z,8.60
2018-11-29T14:40:36.712Z,9.20
2018-11-29T14:43:07.269Z,6.67
2018-11-29T14:45:37.060Z,8.03
2018-11-29T14:48:06.129Z,8.00
2018-11-29T14:50:38.319Z,12.57
2018-11-29T14:53:08.344Z,5.70
2018-11-29T14:55:39.438Z,9.20
2018-11-29T14:58:09.572Z,8.60
2018-11-29T15:00:38.764Z,8.70
2018-11-29T15:03:12.457Z,4.77
2018-11-29T15:05:41.625Z,7.60
2018-11-29T15:08:10.874Z,9.00
2018-11-29T15:10:39.890Z,8.65
2018-11-29T15:13:10.058Z,7.83
2018-11-29T15:15:40.972Z,8.70
2018-11-29T15:18:10.846Z,7.00
2018-11-29T15:20:42.348Z,5.63
2018-11-29T15:23:13.353Z,8.03
2018-11-29T15:25:42.492Z,8.47
2018-11-29T15:28:12.520Z,5.83
2018-11-29T15:30:42.849Z,11.00
2018-11-29T15:33:12.931Z,6.60
2018-11-29T15:35:43.192Z,6.93
2018-11-29T15:38:13.213Z,5.93
2018-11-29T15:40:42.243Z,5.20
2018-11-29T15:43:11.264Z,10.27
2018-11-29T15:45:41.186Z,7.47
2018-11-29T15:48:10.752Z,8.17
2018-11-29T15:50:40.832Z,7.93
2018-11-29T15:53:10.360Z,9.03
2018-11-29T15:55:40.045Z,8.13
2018-11-29T15:58:09.195Z,9.17
2018-11-29T16:00:38.471Z,15.43
2018-11-29T16:03:08.788Z,11.27
2018-11-29T16:05:41.124Z,8.58
2018-11-29T16:08:07.623Z,11.23
2018-11-29T16:10:36.702Z,10.30
2018-11-29T16:13:06.876Z,9.63
2018-11-29T16:15:36.807Z,7.43
2018-11-29T16:18:06.469Z,8.60
2018-11-29T16:20:39.192Z,11.50
2018-11-29T16:23:09.988Z,8.77
2018-11-29T16:25:39.312Z,11.60
2018-11-29T16:28:09.402Z,13.17
2018-11-29T16:30:48.300Z,16.27
2018-11-29T16:33:24.024Z,11.67
2018-11-29T16:35:53.256Z,15.03
2018-11-29T16:38:23.445Z,15.47
2018-11-29T16:40:53.986Z,13.37
2018-11-29T16:43:24.210Z,15.20
2018-11-29T16:45:53.348Z,10.97
2018-11-29T16:48:22.906Z,13.30
2018-11-29T16:50:52.104Z,12.03
2018-11-29T16:53:21.119Z,12.97
2018-11-29T16:55:50.220Z,14.47
2018-11-29T16:58:22.249Z,15.23
2018-11-29T17:00:52.569Z,18.40
2018-11-29T17:03:22.533Z,13.33
2018-11-29T17:05:53.020Z,14.50
2018-11-29T17:08:22.377Z,17.93
2018-11-29T17:10:51.932Z,17.37
2018-11-29T17:13:21.831Z,13.83
2018-11-29T17:15:51.246Z,17.27
2018-11-29T17:18:20.754Z,19.30
2018-11-29T17:20:51.274Z,15.35
2018-11-29T17:23:20.436Z,18.67
2018-11-29T17:25:50.595Z,20.53
2018-11-29T17:28:20.510Z,19.63
2018-11-29T17:30:49.810Z,20.63
2018-11-29T17:33:19.805Z,19.97
2018-11-29T17:35:49.334Z,22.70
2018-11-29T17:38:19.037Z,27.30
2018-11-29T17:40:48.240Z,20.63
2018-11-29T17:43:17.572Z,23.33
2018-11-29T17:45:46.558Z,26.67
2018-11-29T17:48:16.754Z,20.73
2018-11-29T17:50:45.793Z,22.33
2018-11-29T17:53:15.557Z,20.83
2018-11-29T17:55:44.962Z,23.27
2018-11-29T17:58:15.732Z,34.40
2018-11-29T18:00:50.488Z,29.60
2018-11-29T18:03:21.681Z,35.97
2018-11-29T18:05:50.982Z,34.80
2018-11-29T18:08:20.362Z,48.50
2018-11-29T18:10:52.029Z,46.33
2018-11-29T18:13:23.898Z,55.40
2018-11-29T18:15:52.953Z,52.20
2018-11-29T18:18:22.168Z,48.47
2018-11-29T18:20:52.095Z,37.10
2018-11-29T18:23:21.168Z,54.83
2018-11-29T18:25:50.512Z,95.47
2018-11-29T18:28:20.005Z,41.23
2018-11-29T18:30:49.808Z,38.73
2018-11-29T18:33:19.822Z,27.03
2018-11-29T18:35:49.465Z,32.37
2018-11-29T18:38:18.738Z,19.30
2018-11-29T18:40:48.237Z,23.43
2018-11-29T18:43:17.361Z,25.70
2018-11-29T18:45:47.140Z,21.07
2018-11-29T18:48:16.565Z,22.77
2018-11-29T18:50:49.991Z,16.83
2018-11-29T18:53:19.210Z,16.87
2018-11-29T18:55:48.442Z,20.97
2018-11-29T18:58:18.521Z,20.27
2018-11-29T19:00:47.628Z,24.37
2018-11-29T19:03:16.674Z,21.80
2018-11-29T19:05:45.936Z,24.37
2018-11-29T19:08:15.148Z,15.83
2018-11-29T19:10:44.444Z,13.87
2018-11-29T19:13:14.000Z,15.13
2018-11-29T19:15:43.768Z,19.90
2018-11-29T19:18:13.700Z,19.00
2018-11-29T19:20:42.970Z,17.63
2018-11-29T19:23:12.284Z,19.57
2018-11-29T19:25:41.274Z,18.47
2018-11-29T19:28:11.388Z,17.03
2018-11-29T19:30:40.716Z,19.57
2018-11-29T19:33:17.367Z,21.50
2018-11-29T19:35:43.563Z,17.30
2018-11-29T19:38:13.307Z,17.27
2018-11-29T19:40:42.479Z,22.80
2018-11-29T19:43:12.108Z,14.97
2018-11-29T19:45:42.028Z,24.40
2018-11-29T19:48:11.874Z,23.07
2018-11-29T19:50:41.849Z,21.03
2018-11-29T19:53:16.567Z,22.30
2018-11-29T19:55:46.509Z,23.23
2018-11-29T19:58:15.700Z,21.00
2018-11-29T20:00:45.052Z,23.60
2018-11-29T20:03:14.055Z,22.53
2018-11-29T20:05:43.280Z,18.97
2018-11-29T20:08:12.788Z,18.70
2018-11-29T20:10:41.907Z,16.93
2018-11-29T20:13:13.289Z,18.87
2018-11-29T20:15:44.025Z,19.40
2018-11-29T20:18:14.400Z,20.87
2018-11-29T20:20:44.507Z,20.10
2018-11-29T20:23:13.955Z,20.90
2018-11-29T20:25:44.660Z,17.43
2018-11-29T20:28:13.968Z,19.97
2018-11-29T20:30:43.120Z,17.90
2018-11-29T20:33:15.101Z,15.87
2018-11-29T20:35:48.076Z,25.90
2018-11-29T20:38:22.085Z,17.53
2018-11-29T20:40:52.753Z,22.40
2018-11-29T20:43:29.000Z,22.40
2018-11-29T20:46:02.201Z,25.40
2018-11-29T20:48:33.097Z,20.50
2018-11-29T20:51:03.781Z,20.90
2018-11-29T20:53:40.666Z,19.57
2018-11-29T20:56:12.768Z,25.60
2018-11-29T20:58:47.067Z,23.67
2018-11-29T21:01:19.203Z,23.20
2018-11-29T21:03:57.499Z,21.63
2018-11-29T21:06:27.648Z,27.53
2018-11-29T21:09:00.169Z,25.57
2018-11-29T21:11:32.490Z,21.07
2018-11-29T21:14:02.906Z,20.70
2018-11-29T21:16:33.272Z,25.73
2018-11-29T21:19:05.921Z,19.23
2018-11-29T21:21:40.985Z,21.13
2018-11-29T21:24:28.193Z,19.40
2018-11-29T21:27:00.837Z,20.77
2018-11-29T21:29:36.217Z,23.03
2018-11-29T21:32:06.399Z,26.12
2018-11-29T21:34:36.923Z,26.40
2018-11-29T21:37:07.348Z,26.13
2018-11-29T21:39:41.185Z,24.87
2018-11-29T21:42:13.320Z,20.83
2018-11-29T21:44:44.315Z,26.03
2018-11-29T21:47:13.707Z,26.67
2018-11-29T21:49:43.195Z,29.70
2018-11-29T21:52:12.347Z,25.70
2018-11-29T21:54:41.285Z,26.57
2018-11-29T21:57:10.161Z,33.80
2018-11-29T21:59:39.023Z,31.90
2018-11-29T22:02:08.453Z,30.90
2018-11-29T22:04:37.563Z,29.80
2018-11-29T22:07:07.488Z,38.63
2018-11-29T22:09:36.969Z,50.60
2018-11-29T22:12:06.752Z,41.57
2018-11-29T22:14:36.082Z,45.20
2018-11-29T22:17:05.551Z,50.17
2018-11-29T22:19:34.785Z,43.50
2018-11-29T22:22:03.928Z,38.37
2018-11-29T22:24:32.839Z,39.40
2018-11-29T22:27:01.819Z,33.13
2018-11-29T22:29:30.757Z,31.50
2018-11-29T22:32:00.056Z,29.07
2018-11-29T22:34:29.048Z,36.13
2018-11-29T22:36:58.245Z,30.43
2018-11-29T22:39:27.114Z,31.77
2018-11-29T22:41:56.035Z,27.90
2018-11-29T22:44:24.852Z,31.77
2018-11-29T22:46:53.707Z,31.07
2018-11-29T22:49:23.010Z,31.07
2018-11-29T22:51:52.292Z,32.90
2018-11-29T22:54:21.051Z,30.57
2018-11-29T22:56:50.115Z,32.67
2018-11-29T22:59:18.980Z,29.03
2018-11-29T23:01:47.972Z,24.33
2018-11-29T23:04:16.866Z,26.53
2018-11-29T23:06:45.724Z,23.80
2018-11-29T23:09:15.368Z,25.53
2018-11-29T23:11:44.252Z,24.63
2018-11-29T23:14:13.444Z,26.93
2018-11-29T23:16:42.545Z,22.40
2018-11-29T23:19:11.328Z,22.67
2018-11-29T23:21:40.295Z,21.20
2018-11-29T23:24:09.114Z,25.77
2018-11-29T23:26:38.411Z,23.83
2018-11-29T23:29:07.308Z,23.53
2018-11-29T23:31:36.698Z,24.10
2018-11-29T23:34:05.879Z,24.13
2018-11-29T23:36:34.560Z,21.87
2018-11-29T23:39:03.472Z,19.62
2018-11-29T23:41:32.223Z,17.70
2018-11-29T23:44:01.162Z,20.77
2018-11-29T23:46:30.463Z,19.83
2018-11-29T23:48:59.243Z,20.60
2018-11-29T23:51:27.935Z,20.20
2018-11-29T23:53:56.614Z,22.97
2018-11-29T23:56:25.513Z,20.17
2018-11-29T23:58:54.270Z,20.37
